sensor_id;sensor_type;location;lat;lon;timestamp;pressure;altitude;pressure_sealevel;temperature;humidity
73860;BME280;62197;51.632;13.700;2023-05-28T00:02:23;100785.13;;;10.07;90.30
73860;BME280;62197;51.632;13.700;2023-05-28T00:04:48;100774.50;;;10.11;91.81
73860;BME280;62197;51.632;13.700;2023-05-28T00:07:14;100766.38;;;9.97;92.91
73860;BME280;62197;51.632;13.700;2023-05-28T00:09:39;100774.75;;;9.91;94.71
73860;BME280;62197;51.632;13.700;2023-05-28T00:12:06;100769.34;;;9.78;94.78
73860;BME280;62197;51.632;13.700;2023-05-28T00:14:33;100765.66;;;9.66;94.93
73860;BME280;62197;51.632;13.700;2023-05-28T00:16:58;100761.09;;;9.60;96.94
73860;BME280;62197;51.632;13.700;2023-05-28T00:19:23;100759.53;;;9.46;96.41
73860;BME280;62197;51.632;13.700;2023-05-28T00:21:49;100770.56;;;9.46;97.96
73860;BME280;62197;51.632;13.700;2023-05-28T00:24:14;100761.22;;;9.47;98.22
73860;BME280;62197;51.632;13.700;2023-05-28T00:26:39;100763.81;;;9.42;100.00
73860;BME280;62197;51.632;13.700;2023-05-28T00:29:05;100761.34;;;9.34;99.68
73860;BME280;62197;51.632;13.700;2023-05-28T00:31:30;100761.00;;;9.24;99.91
73860;BME280;62197;51.632;13.700;2023-05-28T00:33:55;100750.06;;;9.17;100.00
73860;BME280;62197;51.632;13.700;2023-05-28T00:36:21;100757.47;;;9.17;100.00
73860;BME280;62197;51.632;13.700;2023-05-28T00:38:47;100748.03;;;9.06;100.00
73860;BME280;62197;51.632;13.700;2023-05-28T00:41:12;100747.66;;;9.02;100.00
73860;BME280;62197;51.632;13.700;2023-05-28T00:43:37;100749.16;;;8.98;100.00
73860;BME280;62197;51.632;13.700;2023-05-28T00:46:03;100744.66;;;9.04;100.00
73860;BME280;62197;51.632;13.700;2023-05-28T00:48:30;100746.78;;;9.02;100.00
73860;BME280;62197;51.632;13.700;2023-05-28T00:50:57;100748.72;;;9.01;100.00
73860;BME280;62197;51.632;13.700;2023-05-28T00:53:23;100741.75;;;8.99;100.00
73860;BME280;62197;51.632;13.700;2023-05-28T00:55:49;100743.44;;;9.00;100.00
73860;BME280;62197;51.632;13.700;2023-05-28T00:58:15;100739.03;;;8.92;100.00
73860;BME280;62197;51.632;13.700;2023-05-28T01:00:41;100748.25;;;8.80;100.00
73860;BME280;62197;51.632;13.700;2023-05-28T01:03:08;100742.66;;;8.62;100.00
73860;BME280;62197;51.632;13.700;2023-05-28T01:05:34;100745.66;;;8.60;100.00
73860;BME280;62197;51.632;13.700;2023-05-28T01:08:00;100746.28;;;8.62;100.00
73860;BME280;62197;51.632;13.700;2023-05-28T01:10:27;100735.38;;;8.49;100.00
73860;BME280;62197;51.632;13.700;2023-05-28T01:12:53;100741.78;;;8.37;100.00
73860;BME280;62197;51.632;13.700;2023-05-28T01:15:19;100739.31;;;8.22;100.00
73860;BME280;62197;51.632;13.700;2023-05-28T01:17:44;100745.03;;;8.14;100.00
73860;BME280;62197;51.632;13.700;2023-05-28T01:20:10;100730.91;;;8.04;100.00
73860;BME280;62197;51.632;13.700;2023-05-28T01:22:40;100734.75;;;8.03;100.00
73860;BME280;62197;51.632;13.700;2023-05-28T01:25:11;100739.56;;;8.14;100.00
73860;BME280;62197;51.632;13.700;2023-05-28T01:27:40;100740.78;;;8.25;100.00
73860;BME280;62197;51.632;13.700;2023-05-28T01:30:07;100732.16;;;8.14;100.00
73860;BME280;62197;51.632;13.700;2023-05-28T01:32:35;100736.41;;;8.04;100.00
73860;BME280;62197;51.632;13.700;2023-05-28T01:35:00;100741.34;;;7.89;100.00
73860;BME280;62197;51.632;13.700;2023-05-28T01:37:26;100736.53;;;7.78;100.00
73860;BME280;62197;51.632;13.700;2023-05-28T01:39:51;100736.09;;;7.74;100.00
73860;BME280;62197;51.632;13.700;2023-05-28T01:42:17;100737.00;;;7.68;100.00
73860;BME280;62197;51.632;13.700;2023-05-28T01:44:43;100724.31;;;7.61;100.00
73860;BME280;62197;51.632;13.700;2023-05-28T01:47:11;100725.22;;;7.55;100.00
73860;BME280;62197;51.632;13.700;2023-05-28T01:49:38;100737.69;;;7.51;100.00
73860;BME280;62197;51.632;13.700;2023-05-28T01:52:04;100730.31;;;7.45;100.00
73860;BME280;62197;51.632;13.700;2023-05-28T01:54:30;100728.19;;;7.47;100.00
73860;BME280;62197;51.632;13.700;2023-05-28T01:56:55;100727.56;;;7.45;100.00
73860;BME280;62197;51.632;13.700;2023-05-28T01:59:20;100726.06;;;7.49;100.00
73860;BME280;62197;51.632;13.700;2023-05-28T02:01:46;100724.84;;;7.32;100.00
73860;BME280;62197;51.632;13.700;2023-05-28T02:04:11;100722.75;;;7.20;100.00
73860;BME280;62197;51.632;13.700;2023-05-28T02:06:37;100719.56;;;7.10;100.00
73860;BME280;62197;51.632;13.700;2023-05-28T02:09:02;100721.09;;;7.06;100.00
73860;BME280;62197;51.632;13.700;2023-05-28T02:11:27;100718.75;;;7.03;100.00
73860;BME280;62197;51.632;13.700;2023-05-28T02:13:53;100716.84;;;6.97;100.00
73860;BME280;62197;51.632;13.700;2023-05-28T02:16:19;100712.44;;;6.90;100.00
73860;BME280;62197;51.632;13.700;2023-05-28T02:18:46;100726.56;;;6.93;100.00
73860;BME280;62197;51.632;13.700;2023-05-28T02:21:13;100717.28;;;6.94;100.00
73860;BME280;62197;51.632;13.700;2023-05-28T02:23:42;100714.78;;;6.93;100.00
73860;BME280;62197;51.632;13.700;2023-05-28T02:26:07;100714.31;;;6.89;100.00
73860;BME280;62197;51.632;13.700;2023-05-28T02:28:33;100710.13;;;6.87;100.00
73860;BME280;62197;51.632;13.700;2023-05-28T02:30:58;100708.44;;;6.79;100.00
73860;BME280;62197;51.632;13.700;2023-05-28T02:33:23;100710.94;;;6.74;100.00
73860;BME280;62197;51.632;13.700;2023-05-28T02:35:49;100707.56;;;6.72;100.00
73860;BME280;62197;51.632;13.700;2023-05-28T02:38:14;100706.31;;;6.75;100.00
73860;BME280;62197;51.632;13.700;2023-05-28T02:40:40;100712.66;;;6.75;100.00
73860;BME280;62197;51.632;13.700;2023-05-28T02:43:05;100713.09;;;6.66;100.00
73860;BME280;62197;51.632;13.700;2023-05-28T02:45:30;100712.00;;;6.60;100.00
73860;BME280;62197;51.632;13.700;2023-05-28T02:47:56;100714.75;;;6.54;100.00
73860;BME280;62197;51.632;13.700;2023-05-28T02:50:21;100703.34;;;6.57;100.00
73860;BME280;62197;51.632;13.700;2023-05-28T02:52:46;100714.53;;;6.55;100.00
73860;BME280;62197;51.632;13.700;2023-05-28T02:55:12;100708.84;;;6.50;100.00
73860;BME280;62197;51.632;13.700;2023-05-28T02:57:37;100709.25;;;6.47;100.00
73860;BME280;62197;51.632;13.700;2023-05-28T03:00:03;100712.22;;;6.52;100.00
73860;BME280;62197;51.632;13.700;2023-05-28T03:02:28;100704.84;;;6.46;100.00
73860;BME280;62197;51.632;13.700;2023-05-28T03:04:53;100713.06;;;6.46;100.00
73860;BME280;62197;51.632;13.700;2023-05-28T03:07:20;100710.94;;;6.42;100.00
73860;BME280;62197;51.632;13.700;2023-05-28T03:09:45;100715.16;;;6.37;100.00
73860;BME280;62197;51.632;13.700;2023-05-28T03:12:10;100710.50;;;6.38;100.00
73860;BME280;62197;51.632;13.700;2023-05-28T03:14:35;100706.69;;;6.39;100.00
73860;BME280;62197;51.632;13.700;2023-05-28T03:17:01;100708.81;;;6.44;100.00
73860;BME280;62197;51.632;13.700;2023-05-28T03:19:26;100701.69;;;6.43;100.00
73860;BME280;62197;51.632;13.700;2023-05-28T03:21:51;100707.56;;;6.46;100.00
73860;BME280;62197;51.632;13.700;2023-05-28T03:24:17;100704.63;;;6.54;100.00
73860;BME280;62197;51.632;13.700;2023-05-28T03:26:42;100700.38;;;6.58;100.00
73860;BME280;62197;51.632;13.700;2023-05-28T03:29:07;100706.31;;;6.62;100.00
73860;BME280;62197;51.632;13.700;2023-05-28T03:31:43;100700.84;;;6.75;100.00
73860;BME280;62197;51.632;13.700;2023-05-28T03:34:09;100706.53;;;6.73;100.00
73860;BME280;62197;51.632;13.700;2023-05-28T03:36:34;100710.56;;;6.77;100.00
73860;BME280;62197;51.632;13.700;2023-05-28T03:39:00;100706.31;;;6.75;100.00
73860;BME280;62197;51.632;13.700;2023-05-28T03:41:25;100706.53;;;6.73;100.00
73860;BME280;62197;51.632;13.700;2023-05-28T03:43:51;100703.78;;;6.80;100.00
73860;BME280;62197;51.632;13.700;2023-05-28T03:46:16;100714.75;;;6.99;100.00
73860;BME280;62197;51.632;13.700;2023-05-28T03:48:41;100711.56;;;7.09;100.00
73860;BME280;62197;51.632;13.700;2023-05-28T03:51:07;100716.63;;;7.25;100.00
73860;BME280;62197;51.632;13.700;2023-05-28T03:53:32;100710.06;;;7.32;100.00
73860;BME280;62197;51.632;13.700;2023-05-28T03:55:58;100707.06;;;7.41;100.00
73860;BME280;62197;51.632;13.700;2023-05-28T03:58:23;100703.66;;;7.52;100.00
73860;BME280;62197;51.632;13.700;2023-05-28T04:00:48;100709.16;;;7.52;100.00
73860;BME280;62197;51.632;13.700;2023-05-28T04:03:13;100711.84;;;7.65;100.00
73860;BME280;62197;51.632;13.700;2023-05-28T04:05:39;100701.50;;;7.67;100.00
73860;BME280;62197;51.632;13.700;2023-05-28T04:08:04;100712.88;;;7.77;100.00
73860;BME280;62197;51.632;13.700;2023-05-28T04:10:29;100703.06;;;7.94;100.00
73860;BME280;62197;51.632;13.700;2023-05-28T04:12:55;100700.94;;;7.96;100.00
73860;BME280;62197;51.632;13.700;2023-05-28T04:15:21;100708.72;;;8.05;100.00
73860;BME280;62197;51.632;13.700;2023-05-28T04:17:46;100704.84;;;8.26;100.00
73860;BME280;62197;51.632;13.700;2023-05-28T04:20:11;100706.25;;;8.35;100.00
73860;BME280;62197;51.632;13.700;2023-05-28T04:22:37;100706.63;;;8.45;100.00
73860;BME280;62197;51.632;13.700;2023-05-28T04:25:02;100709.03;;;8.60;99.15
73860;BME280;62197;51.632;13.700;2023-05-28T04:27:28;100707.25;;;8.72;97.37
73860;BME280;62197;51.632;13.700;2023-05-28T04:29:53;100703.97;;;8.88;94.07
73860;BME280;62197;51.632;13.700;2023-05-28T04:32:20;100704.28;;;8.98;93.24
73860;BME280;62197;51.632;13.700;2023-05-28T04:34:45;100707.78;;;9.12;92.39
73860;BME280;62197;51.632;13.700;2023-05-28T04:37:10;100704.50;;;9.21;90.90
73860;BME280;62197;51.632;13.700;2023-05-28T04:39:36;100705.34;;;9.40;90.62
73860;BME280;62197;51.632;13.700;2023-05-28T04:42:03;100706.97;;;9.47;89.48
73860;BME280;62197;51.632;13.700;2023-05-28T04:44:29;100707.28;;;9.57;88.74
73860;BME280;62197;51.632;13.700;2023-05-28T04:46:55;100696.34;;;9.69;88.60
73860;BME280;62197;51.632;13.700;2023-05-28T04:49:24;100704.00;;;9.85;88.57
73860;BME280;62197;51.632;13.700;2023-05-28T04:51:49;100700.44;;;9.96;88.29
73860;BME280;62197;51.632;13.700;2023-05-28T04:54:15;100695.22;;;10.06;87.04
73860;BME280;62197;51.632;13.700;2023-05-28T04:56:40;100703.34;;;10.19;86.77
73860;BME280;62197;51.632;13.700;2023-05-28T04:59:05;100702.78;;;10.29;86.59
73860;BME280;62197;51.632;13.700;2023-05-28T05:01:34;100706.66;;;10.39;86.08
73860;BME280;62197;51.632;13.700;2023-05-28T05:04:00;100700.94;;;10.52;85.30
73860;BME280;62197;51.632;13.700;2023-05-28T05:06:25;100706.97;;;10.72;84.48
73860;BME280;62197;51.632;13.700;2023-05-28T05:08:51;100710.59;;;10.84;85.19
73860;BME280;62197;51.632;13.700;2023-05-28T05:11:16;100706.22;;;11.07;82.63
73860;BME280;62197;51.632;13.700;2023-05-28T05:13:41;100703.09;;;11.03;83.62
73860;BME280;62197;51.632;13.700;2023-05-28T05:16:07;100704.66;;;11.22;82.36
73860;BME280;62197;51.632;13.700;2023-05-28T05:18:32;100701.66;;;11.24;81.95
73860;BME280;62197;51.632;13.700;2023-05-28T05:20:57;100709.31;;;11.45;80.90
73860;BME280;62197;51.632;13.700;2023-05-28T05:23:22;100701.53;;;11.53;80.21
73860;BME280;62197;51.632;13.700;2023-05-28T05:25:48;100701.72;;;11.75;81.79
73860;BME280;62197;51.632;13.700;2023-05-28T05:28:13;100698.72;;;11.88;80.28
73860;BME280;62197;51.632;13.700;2023-05-28T05:30:38;100713.81;;;12.09;78.87
73860;BME280;62197;51.632;13.700;2023-05-28T05:33:03;100706.41;;;12.26;78.68
73860;BME280;62197;51.632;13.700;2023-05-28T05:35:29;100702.38;;;12.33;77.43
73860;BME280;62197;51.632;13.700;2023-05-28T05:37:55;100695.13;;;12.44;76.88
73860;BME280;62197;51.632;13.700;2023-05-28T05:40:20;100700.22;;;12.63;76.58
73860;BME280;62197;51.632;13.700;2023-05-28T05:42:45;100706.19;;;12.89;76.42
73860;BME280;62197;51.632;13.700;2023-05-28T05:45:11;100705.78;;;12.97;75.39
73860;BME280;62197;51.632;13.700;2023-05-28T05:47:36;100705.66;;;13.20;76.59
73860;BME280;62197;51.632;13.700;2023-05-28T05:50:03;100700.59;;;13.33;74.21
73860;BME280;62197;51.632;13.700;2023-05-28T05:52:30;100697.72;;;13.45;74.17
73860;BME280;62197;51.632;13.700;2023-05-28T05:54:55;100703.03;;;13.68;73.74
73860;BME280;62197;51.632;13.700;2023-05-28T05:57:20;100701.06;;;13.85;73.47
73860;BME280;62197;51.632;13.700;2023-05-28T05:59:46;100696.97;;;13.93;72.54
73860;BME280;62197;51.632;13.700;2023-05-28T06:02:12;100695.25;;;14.08;71.11
73860;BME280;62197;51.632;13.700;2023-05-28T06:04:37;100696.91;;;14.31;70.27
73860;BME280;62197;51.632;13.700;2023-05-28T06:07:03;100697.34;;;14.44;70.88
73860;BME280;62197;51.632;13.700;2023-05-28T06:09:30;100688.59;;;14.58;68.98
73860;BME280;62197;51.632;13.700;2023-05-28T06:11:56;100699.13;;;14.82;67.27
73860;BME280;62197;51.632;13.700;2023-05-28T06:14:22;100693.22;;;15.05;67.07
73860;BME280;62197;51.632;13.700;2023-05-28T06:16:47;100703.66;;;15.25;66.24
73860;BME280;62197;51.632;13.700;2023-05-28T06:19:14;100697.06;;;15.36;66.41
73860;BME280;62197;51.632;13.700;2023-05-28T06:21:39;100698.41;;;15.65;69.99
73860;BME280;62197;51.632;13.700;2023-05-28T06:24:04;100704.03;;;15.75;67.26
73860;BME280;62197;51.632;13.700;2023-05-28T06:26:31;100699.06;;;15.87;63.20
73860;BME280;62197;51.632;13.700;2023-05-28T06:28:57;100694.19;;;16.09;63.17
73860;BME280;62197;51.632;13.700;2023-05-28T06:31:22;100686.72;;;16.25;61.35
73860;BME280;62197;51.632;13.700;2023-05-28T06:33:48;100683.44;;;16.43;62.56
73860;BME280;62197;51.632;13.700;2023-05-28T06:36:13;100690.38;;;16.41;59.56
73860;BME280;62197;51.632;13.700;2023-05-28T06:38:38;100686.00;;;16.65;59.41
73860;BME280;62197;51.632;13.700;2023-05-28T06:41:04;100687.03;;;16.39;57.57
73860;BME280;62197;51.632;13.700;2023-05-28T06:43:29;100693.44;;;16.39;57.23
73860;BME280;62197;51.632;13.700;2023-05-28T06:45:55;100685.16;;;16.54;57.12
73860;BME280;62197;51.632;13.700;2023-05-28T06:48:20;100686.88;;;16.70;57.88
73860;BME280;62197;51.632;13.700;2023-05-28T06:50:46;100687.16;;;16.74;55.24
73860;BME280;62197;51.632;13.700;2023-05-28T06:53:11;100687.44;;;16.92;53.61
73860;BME280;62197;51.632;13.700;2023-05-28T06:55:36;100685.47;;;16.98;53.17
73860;BME280;62197;51.632;13.700;2023-05-28T06:58:02;100682.16;;;16.86;52.32
73860;BME280;62197;51.632;13.700;2023-05-28T07:00:27;100682.69;;;16.88;51.16
73860;BME280;62197;51.632;13.700;2023-05-28T07:02:53;100675.44;;;17.02;51.69
73860;BME280;62197;51.632;13.700;2023-05-28T07:05:18;100690.50;;;17.21;51.94
73860;BME280;62197;51.632;13.700;2023-05-28T07:07:43;100686.03;;;17.35;47.98
73860;BME280;62197;51.632;13.700;2023-05-28T07:10:09;100697.19;;;17.60;48.11
73860;BME280;62197;51.632;13.700;2023-05-28T07:12:35;100693.22;;;17.71;48.08
73860;BME280;62197;51.632;13.700;2023-05-28T07:15:00;100689.03;;;17.79;48.76
73860;BME280;62197;51.632;13.700;2023-05-28T07:17:26;100694.38;;;17.70;46.36
73860;BME280;62197;51.632;13.700;2023-05-28T07:19:51;100678.63;;;17.94;48.22
73860;BME280;62197;51.632;13.700;2023-05-28T07:22:16;100692.50;;;18.20;48.18
73860;BME280;62197;51.632;13.700;2023-05-28T07:24:42;100691.53;;;17.85;47.31
73860;BME280;62197;51.632;13.700;2023-05-28T07:27:07;100686.53;;;17.82;47.09
73860;BME280;62197;51.632;13.700;2023-05-28T07:29:32;100685.03;;;18.05;46.73
73860;BME280;62197;51.632;13.700;2023-05-28T07:31:58;100680.34;;;17.95;46.02
73860;BME280;62197;51.632;13.700;2023-05-28T07:34:23;100679.16;;;18.12;44.72
73860;BME280;62197;51.632;13.700;2023-05-28T07:36:48;100679.44;;;18.05;45.51
73860;BME280;62197;51.632;13.700;2023-05-28T07:39:14;100680.38;;;18.39;45.20
73860;BME280;62197;51.632;13.700;2023-05-28T07:41:39;100687.13;;;18.33;43.99
73860;BME280;62197;51.632;13.700;2023-05-28T07:44:04;100679.03;;;18.32;42.11
73860;BME280;62197;51.632;13.700;2023-05-28T07:46:31;100683.66;;;18.61;42.59
73860;BME280;62197;51.632;13.700;2023-05-28T07:48:57;100686.59;;;18.80;43.19
73860;BME280;62197;51.632;13.700;2023-05-28T07:51:22;100691.97;;;19.10;43.65
73860;BME280;62197;51.632;13.700;2023-05-28T07:53:47;100680.56;;;19.02;41.50
73860;BME280;62197;51.632;13.700;2023-05-28T07:56:13;100693.88;;;18.81;43.04
73860;BME280;62197;51.632;13.700;2023-05-28T07:58:42;100687.50;;;19.09;40.12
73860;BME280;62197;51.632;13.700;2023-05-28T08:01:07;100675.94;;;19.49;40.35
73860;BME280;62197;51.632;13.700;2023-05-28T08:03:34;100690.81;;;19.73;40.33
73860;BME280;62197;51.632;13.700;2023-05-28T08:06:00;100687.72;;;19.99;40.34
73860;BME280;62197;51.632;13.700;2023-05-28T08:08:25;100692.88;;;19.92;38.87
73860;BME280;62197;51.632;13.700;2023-05-28T08:10:51;100688.81;;;20.03;38.80
73860;BME280;62197;51.632;13.700;2023-05-28T08:13:16;100689.69;;;19.74;38.03
73860;BME280;62197;51.632;13.700;2023-05-28T08:15:41;100682.72;;;19.72;37.77
73860;BME280;62197;51.632;13.700;2023-05-28T08:18:07;100665.78;;;19.58;37.84
73860;BME280;62197;51.632;13.700;2023-05-28T08:20:32;100678.25;;;19.71;40.31
73860;BME280;62197;51.632;13.700;2023-05-28T08:22:57;100680.09;;;19.80;38.35
73860;BME280;62197;51.632;13.700;2023-05-28T08:25:23;100674.97;;;20.11;38.79
73860;BME280;62197;51.632;13.700;2023-05-28T08:27:48;100679.28;;;20.27;39.95
73860;BME280;62197;51.632;13.700;2023-05-28T08:30:13;100671.50;;;20.43;37.54
73860;BME280;62197;51.632;13.700;2023-05-28T08:32:39;100668.44;;;20.21;39.00
73860;BME280;62197;51.632;13.700;2023-05-28T08:35:04;100673.53;;;20.14;38.16
73860;BME280;62197;51.632;13.700;2023-05-28T08:37:30;100675.44;;;20.42;37.62
73860;BME280;62197;51.632;13.700;2023-05-28T08:39:55;100680.28;;;20.55;37.73
73860;BME280;62197;51.632;13.700;2023-05-28T08:42:20;100675.06;;;20.67;36.72
73860;BME280;62197;51.632;13.700;2023-05-28T08:44:46;100672.72;;;20.55;38.91
73860;BME280;62197;51.632;13.700;2023-05-28T08:47:12;100676.59;;;20.78;38.46
73860;BME280;62197;51.632;13.700;2023-05-28T08:49:45;100675.28;;;20.52;36.97
73860;BME280;62197;51.632;13.700;2023-05-28T08:52:14;100674.16;;;20.53;38.34
73860;BME280;62197;51.632;13.700;2023-05-28T08:54:41;100668.41;;;20.63;39.77
73860;BME280;62197;51.632;13.700;2023-05-28T08:57:07;100672.09;;;20.40;36.39
73860;BME280;62197;51.632;13.700;2023-05-28T08:59:32;100661.66;;;20.64;37.70
73860;BME280;62197;51.632;13.700;2023-05-28T09:01:57;100659.53;;;20.75;37.30
73860;BME280;62197;51.632;13.700;2023-05-28T09:04:23;100670.19;;;20.91;36.64
73860;BME280;62197;51.632;13.700;2023-05-28T09:06:49;100671.34;;;20.90;37.85
73860;BME280;62197;51.632;13.700;2023-05-28T09:09:18;100655.25;;;21.14;37.44
73860;BME280;62197;51.632;13.700;2023-05-28T09:11:43;100649.03;;;21.17;35.11
73860;BME280;62197;51.632;13.700;2023-05-28T09:14:10;100645.41;;;20.80;37.37
73860;BME280;62197;51.632;13.700;2023-05-28T09:16:42;100652.94;;;20.84;34.82
73860;BME280;62197;51.632;13.700;2023-05-28T09:19:09;100666.19;;;20.97;36.06
73860;BME280;62197;51.632;13.700;2023-05-28T09:21:35;100662.53;;;21.15;37.67
73860;BME280;62197;51.632;13.700;2023-05-28T09:24:02;100657.19;;;21.32;35.23
73860;BME280;62197;51.632;13.700;2023-05-28T09:26:31;100663.47;;;20.92;35.97
73860;BME280;62197;51.632;13.700;2023-05-28T09:28:58;100657.09;;;21.05;36.08
73860;BME280;62197;51.632;13.700;2023-05-28T09:31:30;100655.06;;;21.24;35.05
73860;BME280;62197;51.632;13.700;2023-05-28T09:33:59;100652.09;;;20.65;34.93
73860;BME280;62197;51.632;13.700;2023-05-28T09:36:29;100644.53;;;20.28;35.81
73860;BME280;62197;51.632;13.700;2023-05-28T09:38:55;100645.25;;;21.08;36.55
73860;BME280;62197;51.632;13.700;2023-05-28T09:41:22;100647.00;;;21.36;34.99
73860;BME280;62197;51.632;13.700;2023-05-28T09:44:01;100640.38;;;21.14;35.46
73860;BME280;62197;51.632;13.700;2023-05-28T09:48:53;100637.91;;;21.26;35.60
73860;BME280;62197;51.632;13.700;2023-05-28T09:51:20;100649.63;;;21.46;34.38
73860;BME280;62197;51.632;13.700;2023-05-28T09:53:49;100645.91;;;21.65;34.60
73860;BME280;62197;51.632;13.700;2023-05-28T09:56:18;100641.63;;;21.67;35.34
73860;BME280;62197;51.632;13.700;2023-05-28T09:58:46;100640.19;;;21.70;35.40
73860;BME280;62197;51.632;13.700;2023-05-28T10:01:18;100629.38;;;21.77;34.59
73860;BME280;62197;51.632;13.700;2023-05-28T10:03:51;100630.97;;;21.23;34.83
73860;BME280;62197;51.632;13.700;2023-05-28T10:06:23;100636.06;;;21.81;37.12
73860;BME280;62197;51.632;13.700;2023-05-28T10:08:51;100629.78;;;22.11;35.70
73860;BME280;62197;51.632;13.700;2023-05-28T10:11:21;100622.75;;;21.86;33.46
73860;BME280;62197;51.632;13.700;2023-05-28T10:13:48;100618.88;;;21.96;35.51
73860;BME280;62197;51.632;13.700;2023-05-28T10:16:13;100619.06;;;22.13;34.35
73860;BME280;62197;51.632;13.700;2023-05-28T10:18:40;100613.06;;;22.41;35.35
73860;BME280;62197;51.632;13.700;2023-05-28T10:21:07;100617.22;;;22.58;33.65
73860;BME280;62197;51.632;13.700;2023-05-28T10:23:33;100616.44;;;22.79;34.19
73860;BME280;62197;51.632;13.700;2023-05-28T10:25:58;100620.56;;;23.04;34.83
73860;BME280;62197;51.632;13.700;2023-05-28T10:28:24;100621.44;;;21.51;33.92
73860;BME280;62197;51.632;13.700;2023-05-28T10:31:01;100621.66;;;22.23;34.67
73860;BME280;62197;51.632;13.700;2023-05-28T10:33:28;100612.22;;;22.55;33.57
73860;BME280;62197;51.632;13.700;2023-05-28T10:35:55;100614.00;;;22.86;33.51
73860;BME280;62197;51.632;13.700;2023-05-28T10:38:21;100617.69;;;23.17;31.67
73860;BME280;62197;51.632;13.700;2023-05-28T10:40:46;100614.72;;;23.36;31.30
73860;BME280;62197;51.632;13.700;2023-05-28T10:46:10;100607.13;;;23.45;31.35
73860;BME280;62197;51.632;13.700;2023-05-28T10:48:41;100607.66;;;23.56;30.20
73860;BME280;62197;51.632;13.700;2023-05-28T10:51:08;100604.25;;;23.37;31.20
73860;BME280;62197;51.632;13.700;2023-05-28T10:53:33;100612.66;;;23.59;29.60
73860;BME280;62197;51.632;13.700;2023-05-28T10:56:00;100614.81;;;23.62;31.03
73860;BME280;62197;51.632;13.700;2023-05-28T10:58:33;100613.22;;;23.39;30.72
73860;BME280;62197;51.632;13.700;2023-05-28T11:01:03;100611.00;;;22.61;30.19
73860;BME280;62197;51.632;13.700;2023-05-28T11:03:42;100607.66;;;23.03;30.01
73860;BME280;62197;51.632;13.700;2023-05-28T11:06:09;100611.38;;;24.04;28.83
73860;BME280;62197;51.632;13.700;2023-05-28T11:08:40;100608.56;;;23.12;30.77
73860;BME280;62197;51.632;13.700;2023-05-28T11:11:06;100613.47;;;23.98;29.71
73860;BME280;62197;51.632;13.700;2023-05-28T11:13:33;100599.00;;;24.48;29.14
73860;BME280;62197;51.632;13.700;2023-05-28T11:16:11;100591.88;;;24.67;27.96
73860;BME280;62197;51.632;13.700;2023-05-28T11:18:37;100591.16;;;25.47;26.84
73860;BME280;62197;51.632;13.700;2023-05-28T11:21:07;100584.53;;;26.10;25.83
73860;BME280;62197;51.632;13.700;2023-05-28T11:23:35;100586.56;;;26.01;26.77
73860;BME280;62197;51.632;13.700;2023-05-28T11:26:05;100585.47;;;26.23;25.27
73860;BME280;62197;51.632;13.700;2023-05-28T11:28:31;100591.53;;;26.33;25.50
73860;BME280;62197;51.632;13.700;2023-05-28T11:30:58;100587.25;;;26.77;24.70
73860;BME280;62197;51.632;13.700;2023-05-28T11:33:26;100586.00;;;26.87;23.83
73860;BME280;62197;51.632;13.700;2023-05-28T11:35:56;100585.25;;;27.10;24.16
73860;BME280;62197;51.632;13.700;2023-05-28T11:38:21;100582.91;;;27.57;24.64
73860;BME280;62197;51.632;13.700;2023-05-28T11:40:47;100578.97;;;27.94;24.12
73860;BME280;62197;51.632;13.700;2023-05-28T11:43:12;100589.31;;;27.78;25.41
73860;BME280;62197;51.632;13.700;2023-05-28T11:45:39;100580.13;;;27.93;25.73
73860;BME280;62197;51.632;13.700;2023-05-28T11:48:10;100574.38;;;26.59;24.85
73860;BME280;62197;51.632;13.700;2023-05-28T11:50:36;100572.56;;;27.85;25.69
73860;BME280;62197;51.632;13.700;2023-05-28T11:53:01;100561.13;;;28.58;21.14
73860;BME280;62197;51.632;13.700;2023-05-28T11:55:26;100557.13;;;27.38;23.66
73860;BME280;62197;51.632;13.700;2023-05-28T11:57:52;100563.19;;;27.73;22.66
73860;BME280;62197;51.632;13.700;2023-05-28T12:00:29;100557.88;;;28.31;21.31
73860;BME280;62197;51.632;13.700;2023-05-28T12:02:56;100547.66;;;29.10;21.42
73860;BME280;62197;51.632;13.700;2023-05-28T12:05:22;100552.69;;;28.09;21.96
73860;BME280;62197;51.632;13.700;2023-05-28T12:07:52;100553.16;;;27.18;23.68
73860;BME280;62197;51.632;13.700;2023-05-28T12:10:20;100549.53;;;26.44;24.89
73860;BME280;62197;51.632;13.700;2023-05-28T12:12:47;100553.38;;;27.70;23.77
73860;BME280;62197;51.632;13.700;2023-05-28T12:15:14;100552.69;;;26.84;26.25
73860;BME280;62197;51.632;13.700;2023-05-28T12:17:42;100557.16;;;29.02;24.13
73860;BME280;62197;51.632;13.700;2023-05-28T12:22:42;100560.47;;;29.75;20.02
73860;BME280;62197;51.632;13.700;2023-05-28T12:25:08;100549.41;;;29.26;20.85
73860;BME280;62197;51.632;13.700;2023-05-28T12:27:34;100556.28;;;30.03;21.81
73860;BME280;62197;51.632;13.700;2023-05-28T12:30:00;100549.13;;;28.24;22.43
73860;BME280;62197;51.632;13.700;2023-05-28T12:32:25;100553.16;;;27.63;23.05
73860;BME280;62197;51.632;13.700;2023-05-28T12:34:52;100541.13;;;28.94;21.72
73860;BME280;62197;51.632;13.700;2023-05-28T12:37:19;100536.91;;;29.62;22.81
73860;BME280;62197;51.632;13.700;2023-05-28T12:39:44;100544.81;;;29.53;21.72
73860;BME280;62197;51.632;13.700;2023-05-28T12:42:09;100551.88;;;29.28;23.00
73860;BME280;62197;51.632;13.700;2023-05-28T12:44:35;100546.31;;;29.94;21.05